CheckWX is a tool to help pilots better visualize weather data.  It is not intended as a substitute for an official pre-flight weather briefing.

13:20:00 UTC

KHKS METAR
Hawkins Field Airport
Jackson, Mississippi, USA
Current

27 mins ago

KHKS 211253Z 00000KT 10SM CLR 21/18 A3020 RMK AO2 SLP219 T02110183
Observed
Sep-21 @ 12:53 UTC
Visibility
10 SM
Flight Rules
VFR
Cloud Levels
  • Clear skies
Temperature
21°C / 70°F
Dewpoint
18°C / 64°F
Humidity
83%
Altimeter
30.2" Hg
Pressure
1022.72 hPa
Previous

1 hour ago

KHKS 211153Z 00000KT 10SM CLR 19/17 A3019 RMK AO2 SLP214 T01890167 10222 20189 53010
Observed
Sep-21 @ 11:53 UTC
Visibility
10 SM
Flight Rules
VFR
Cloud Levels
  • Clear skies
Temperature
19°C / 66°F
Dewpoint
17°C / 63°F
Humidity
88%
Altimeter
30.19" Hg
Pressure
1022.32 hPa
Previous

2 hours ago

KHKS 211053Z AUTO 00000KT 10SM CLR 19/17 A3018 RMK AO2 SLP210 T01940167
Observed
Sep-21 @ 10:53 UTC
Visibility
10 SM
Flight Rules
VFR
Cloud Levels
  • Clear skies
Temperature
19°C / 66°F
Dewpoint
17°C / 63°F
Humidity
88%
Altimeter
30.18" Hg
Pressure
1022.02 hPa